Time;durP1;ratioP1;P1;durP2;ratioP2;P2;SDS_P1;SDS_P2;PMS_P1;PMS_P2;Temp;Humidity;BMP_temperature;BMP_pressure;BME280_temperature;BME280_humidity;BME280_pressure;Samples;Min_cycle;Max_cycle;Signal;HPM_P1;HPM_P2
2023/11/10 04:06:35;;;;;;;0.30;0.30;;;9.20;99.90;;;;;;5257788;23;20238;-61
2023/11/10 04:09:02;;;;;;;0.30;0.30;;;9.20;99.90;;;;;;4974821;28;20172;-63
2023/11/10 04:11:28;;;;;;;0.30;0.30;;;9.20;99.90;;;;;;4974222;28;20404;-63
2023/11/10 04:13:54;;;;;;;0.30;0.30;;;9.20;99.90;;;;;;4973585;28;20591;-62
2023/11/10 04:16:21;;;;;;;0.30;0.30;;;9.20;99.90;;;;;;4957407;28;20199;-61
2023/11/10 04:18:51;;;;;;;0.30;0.30;;;9.20;99.90;;;;;;4974822;28;20599;-62
2023/11/10 04:21:22;;;;;;;0.40;0.40;;;9.20;99.90;;;;;;4974806;28;20264;-62
2023/11/10 04:23:51;;;;;;;0.32;0.32;;;9.20;99.90;;;;;;4974626;28;20169;-66
2023/11/10 04:26:17;;;;;;;0.40;0.40;;;9.20;99.90;;;;;;4974025;28;20251;-62
2023/11/10 04:28:47;;;;;;;0.30;0.30;;;9.20;99.90;;;;;;4974773;28;20533;-62
2023/11/10 04:31:17;;;;;;;0.30;0.30;;;9.20;99.90;;;;;;4974779;28;20175;-62
2023/11/10 04:33:46;;;;;;;0.30;0.30;;;9.20;99.90;;;;;;4974595;28;20168;-61
2023/11/10 04:36:15;;;;;;;0.30;0.30;;;9.20;99.90;;;;;;4971922;28;20205;-61
2023/11/10 04:38:44;;;;;;;0.30;0.30;;;9.20;99.90;;;;;;4974226;28;20176;-62
2023/11/10 04:41:11;;;;;;;0.30;0.30;;;9.20;99.90;;;;;;4974477;28;20302;-62
2023/11/10 04:43:36;;;;;;;0.30;0.30;;;9.20;99.90;;;;;;4974169;28;20180;-62
2023/11/10 04:46:05;;;;;;;0.30;0.30;;;9.20;99.90;;;;;;4973929;28;20211;-62
2023/11/10 04:48:31;;;;;;;0.43;0.43;;;9.20;99.90;;;;;;4977967;28;20594;-62
2023/11/10 04:50:56;;;;;;;0.40;0.40;;;9.20;99.90;;;;;;4978360;28;20196;-62
2023/11/10 04:53:22;;;;;;;0.30;0.30;;;9.20;99.90;;;;;;4978240;28;20176;-61
2023/11/10 04:55:48;;;;;;;0.40;0.40;;;9.20;99.90;;;;;;4977998;28;20208;-62
2023/11/10 04:58:14;;;;;;;0.30;0.30;;;9.20;99.90;;;;;;4977783;28;20263;-62
2023/11/10 05:00:40;;;;;;;0.30;0.30;;;9.20;99.90;;;;;;4978190;28;20232;-62
2023/11/10 05:03:06;;;;;;;0.30;0.30;;;9.20;99.90;;;;;;4978301;28;20176;-62
2023/11/10 05:05:32;;;;;;;0.45;0.45;;;9.10;99.90;;;;;;4977655;28;20247;-61
2023/11/10 05:07:59;;;;;;;0.30;0.30;;;9.10;99.90;;;;;;4978286;28;20215;-63
2023/11/10 05:10:25;;;;;;;0.30;0.30;;;9.10;99.90;;;;;;4978112;28;20177;-62
2023/11/10 05:12:51;;;;;;;0.40;0.40;;;9.10;99.90;;;;;;4977816;28;20185;-62
2023/11/10 05:15:17;;;;;;;0.30;0.30;;;9.10;99.90;;;;;;4977618;28;20207;-61
2023/11/10 05:17:43;;;;;;;0.30;0.30;;;9.10;99.90;;;;;;4977981;28;20208;-62
2023/11/10 05:20:10;;;;;;;0.30;0.30;;;9.10;99.90;;;;;;4977930;28;20199;-61
2023/11/10 05:22:36;;;;;;;0.30;0.30;;;9.10;99.90;;;;;;4977807;28;20172;-62
2023/11/10 05:25:03;;;;;;;0.30;0.30;;;9.10;99.90;;;;;;4977362;28;20250;-61
2023/11/10 05:27:30;;;;;;;0.30;0.30;;;9.10;99.90;;;;;;4977423;28;20175;-62
2023/11/10 05:29:55;;;;;;;0.30;0.30;;;9.10;99.90;;;;;;4977102;28;20187;-62
2023/11/10 05:32:21;;;;;;;0.40;0.40;;;9.10;99.90;;;;;;4977010;28;20174;-61
2023/11/10 05:34:50;;;;;;;0.30;0.30;;;9.10;99.90;;;;;;4976807;28;20197;-62
2023/11/10 05:37:18;;;;;;;0.30;0.30;;;9.10;99.90;;;;;;4961053;28;20184;-62
2023/11/10 05:39:44;;;;;;;0.30;0.30;;;9.10;99.90;;;;;;4977647;28;20333;-62
2023/11/10 05:42:10;;;;;;;0.30;0.30;;;9.10;99.90;;;;;;4977418;28;20195;-61
2023/11/10 05:44:35;;;;;;;0.40;0.40;;;9.10;99.90;;;;;;4976681;28;20595;-62
2023/11/10 05:47:01;;;;;;;0.30;0.30;;;9.00;99.90;;;;;;4977338;28;20199;-62
2023/11/10 05:49:27;;;;;;;0.30;0.30;;;9.00;99.90;;;;;;4976943;28;20531;-61
2023/11/10 05:51:52;;;;;;;0.30;0.30;;;8.90;99.90;;;;;;4977205;28;20167;-61
2023/11/10 05:54:18;;;;;;;0.30;0.30;;;8.90;99.90;;;;;;4976937;28;20631;-63
2023/11/10 05:56:45;;;;;;;0.30;0.30;;;8.80;99.90;;;;;;4976577;28;20222;-63
2023/11/10 05:59:10;;;;;;;0.30;0.30;;;8.80;99.90;;;;;;4976756;28;20532;-62
2023/11/10 06:01:36;;;;;;;0.30;0.30;;;8.70;99.90;;;;;;4976913;28;20180;-63
2023/11/10 06:04:02;;;;;;;0.30;0.30;;;8.60;99.90;;;;;;4976525;28;20188;-62
2023/11/10 06:06:28;;;;;;;0.30;0.30;;;8.60;99.90;;;;;;4975907;28;20239;-62
2023/11/10 06:08:54;;;;;;;0.30;0.30;;;8.60;99.90;;;;;;4977219;28;20483;-62
2023/11/10 06:11:23;;;;;;;0.30;0.30;;;8.60;99.90;;;;;;4976952;28;20412;-62
2023/11/10 06:13:50;;;;;;;0.30;0.30;;;8.60;99.90;;;;;;4976829;28;20164;-64
2023/11/10 06:16:16;;;;;;;0.40;0.40;;;8.60;99.90;;;;;;4976658;28;20214;-62
2023/11/10 06:18:44;;;;;;;0.30;0.30;;;8.60;99.90;;;;;;4976661;28;20275;-62
2023/11/10 06:21:11;;;;;;;0.30;0.30;;;8.50;99.90;;;;;;4976923;28;20603;-62
2023/11/10 06:23:37;;;;;;;0.40;0.40;;;8.60;99.90;;;;;;4976730;28;20183;-62
2023/11/10 06:26:03;;;;;;;0.30;0.30;;;8.60;99.90;;;;;;4976116;28;20196;-62
2023/11/10 06:28:29;;;;;;;0.30;0.30;;;8.60;99.90;;;;;;4976674;28;20216;-63
2023/11/10 06:30:56;;;;;;;0.30;0.30;;;8.70;99.90;;;;;;4976712;28;20179;-62
2023/11/10 06:33:21;;;;;;;0.40;0.40;;;8.70;99.90;;;;;;4976654;28;20176;-62
2023/11/10 06:35:47;;;;;;;0.30;0.30;;;8.70;99.90;;;;;;4976317;28;20199;-62
2023/11/10 06:38:13;;;;;;;0.30;0.30;;;8.70;99.90;;;;;;4976483;28;20262;-62
2023/11/10 06:40:39;;;;;;;0.40;0.40;;;8.70;99.90;;;;;;4976340;28;20674;-62
2023/11/10 06:43:04;;;;;;;0.40;0.40;;;8.70;99.90;;;;;;4976281;28;20552;-61
2023/11/10 06:45:30;;;;;;;0.30;0.30;;;8.80;99.90;;;;;;4975982;28;20552;-63
2023/11/10 06:47:59;;;;;;;0.30;0.30;;;8.80;99.90;;;;;;4976042;28;20644;-62
2023/11/10 06:50:25;;;;;;;0.30;0.30;;;8.80;99.90;;;;;;4976224;28;20548;-62
2023/11/10 06:52:51;;;;;;;0.30;0.30;;;8.90;99.90;;;;;;4976453;28;20251;-62
2023/11/10 06:55:16;;;;;;;0.30;0.30;;;8.90;99.90;;;;;;4975783;28;20195;-61
2023/11/10 06:57:44;;;;;;;0.30;0.30;;;8.90;99.90;;;;;;4976486;28;20259;-61
2023/11/10 07:00:11;;;;;;;0.30;0.30;;;8.90;99.90;;;;;;4976261;28;20169;-62
2023/11/10 07:02:37;;;;;;;0.30;0.30;;;9.00;99.90;;;;;;4976168;28;20182;-62
2023/11/10 07:05:03;;;;;;;0.30;0.30;;;9.00;99.90;;;;;;4974860;28;20228;-62
2023/11/10 07:07:30;;;;;;;0.30;0.30;;;9.00;99.90;;;;;;4974795;28;20255;-62
2023/11/10 07:09:59;;;;;;;0.30;0.30;;;9.10;99.90;;;;;;4974791;28;20560;-62
2023/11/10 07:12:25;;;;;;;0.30;0.30;;;9.00;99.90;;;;;;4975961;28;20164;-61
2023/11/10 07:14:51;;;;;;;0.30;0.30;;;9.10;99.90;;;;;;4975363;28;20184;-62
2023/11/10 07:17:17;;;;;;;0.30;0.30;;;9.10;99.90;;;;;;4961900;28;20179;-62
2023/11/10 07:19:44;;;;;;;0.30;0.30;;;9.00;99.90;;;;;;4970599;28;20176;-63
2023/11/10 07:22:10;;;;;;;0.30;0.30;;;9.00;99.90;;;;;;4975113;28;20431;-62
2023/11/10 07:24:35;;;;;;;0.40;0.40;;;9.00;99.90;;;;;;4975066;28;20184;-61
2023/11/10 07:27:06;;;;;;;0.30;0.30;;;8.90;99.90;;;;;;4975185;28;20702;-63
2023/11/10 07:29:35;;;;;;;0.30;0.30;;;8.90;99.90;;;;;;4975139;28;20172;-63
2023/11/10 07:32:01;;;;;;;0.30;0.30;;;8.90;99.90;;;;;;4972064;28;20176;-70
2023/11/10 07:34:27;;;;;;;0.30;0.30;;;8.80;99.90;;;;;;4967678;28;20183;-68
2023/11/10 07:37:00;;;;;;;0.30;0.30;;;8.80;99.90;;;;;;4974123;28;20549;-66
2023/11/10 07:39:30;;;;;;;0.30;0.30;;;8.90;99.90;;;;;;4975809;28;20531;-67
2023/11/10 07:42:00;;;;;;;0.30;0.30;;;9.00;99.90;;;;;;4964477;28;20205;-66
2023/11/10 07:44:25;;;;;;;0.30;0.30;;;9.20;99.90;;;;;;4974768;28;20170;-64
2023/11/10 07:46:53;;;;;;;0.40;0.40;;;9.50;99.90;;;;;;4973925;28;20214;-64
2023/11/10 07:49:19;;;;;;;0.30;0.30;;;9.70;99.90;;;;;;4973898;28;20178;-65
2023/11/10 07:51:44;;;;;;;0.30;0.30;;;10.00;99.90;;;;;;4974930;28;20178;-64
2023/11/10 07:54:12;;;;;;;0.30;0.30;;;10.30;99.90;;;;;;4957121;28;20186;-64
2023/11/10 07:56:39;;;;;;;0.30;0.30;;;10.50;99.90;;;;;;4974480;28;20202;-65
2023/11/10 07:59:04;;;;;;;0.37;0.37;;;10.50;99.90;;;;;;4973221;28;20498;-67
2023/11/10 08:01:30;;;;;;;0.30;0.30;;;10.60;99.90;;;;;;4975129;28;20549;-69
2023/11/10 08:03:55;;;;;;;0.30;0.30;;;10.70;99.90;;;;;;4973823;28;20233;-69
2023/11/10 08:06:21;;;;;;;0.30;0.30;;;10.70;99.90;;;;;;4974414;28;20842;-67
2023/11/10 08:08:48;;;;;;;0.30;0.27;;;10.70;99.90;;;;;;4975042;28;20226;-68
2023/11/10 08:11:16;;;;;;;0.30;0.30;;;10.80;99.90;;;;;;4975062;28;20457;-65
2023/11/10 08:13:41;;;;;;;0.30;0.30;;;10.90;99.90;;;;;;4974745;28;20167;-68
2023/11/10 08:16:07;;;;;;;0.30;0.30;;;10.80;99.90;;;;;;4973905;28;20542;-67
2023/11/10 08:18:33;;;;;;;0.30;0.30;;;10.70;99.90;;;;;;4974934;28;20175;-71
2023/11/10 08:20:58;;;;;;;0.30;0.30;;;10.60;99.90;;;;;;4974595;28;20185;-67
2023/11/10 08:23:24;;;;;;;0.30;0.30;;;10.60;99.90;;;;;;4974646;28;20185;-65
2023/11/10 08:25:50;;;;;;;0.30;0.30;;;10.50;99.90;;;;;;4974190;28;20289;-69
2023/11/10 08:28:16;;;;;;;0.30;0.30;;;10.40;99.90;;;;;;4974949;28;20175;-66
2023/11/10 08:30:42;;;;;;;0.30;0.30;;;10.30;99.90;;;;;;4957055;28;20410;-69
2023/11/10 08:33:08;;;;;;;0.30;0.20;;;10.20;99.90;;;;;;4974342;28;20177;-69
2023/11/10 08:35:33;;;;;;;0.30;0.30;;;10.20;99.90;;;;;;4973957;28;20194;-68
2023/11/10 08:37:59;;;;;;;0.50;0.40;;;10.10;99.90;;;;;;4974682;28;20196;-68
2023/11/10 08:40:24;;;;;;;0.30;0.20;;;10.20;99.90;;;;;;4957092;28;20189;-69
2023/11/10 08:42:50;;;;;;;0.30;0.30;;;10.20;99.90;;;;;;4974802;28;20601;-69
2023/11/10 08:45:17;;;;;;;0.30;0.30;;;10.20;99.90;;;;;;4972778;28;20212;-68
2023/11/10 08:47:43;;;;;;;0.40;0.40;;;10.30;99.90;;;;;;4972350;28;20205;-67
2023/11/10 08:50:10;;;;;;;0.33;0.33;;;10.40;99.90;;;;;;4973605;28;20271;-68
2023/11/10 08:52:40;;;;;;;0.30;0.30;;;10.40;99.90;;;;;;4973825;28;20504;-66
2023/11/10 08:55:06;;;;;;;0.30;0.30;;;10.50;99.90;;;;;;4966034;28;20842;-68
2023/11/10 08:57:32;;;;;;;0.30;0.30;;;10.60;99.90;;;;;;4969650;28;20520;-66
2023/11/10 09:00:00;;;;;;;0.30;0.30;;;10.60;99.90;;;;;;4973291;28;20433;-63
2023/11/10 09:02:25;;;;;;;0.30;0.30;;;10.70;99.90;;;;;;4978698;28;20189;-68
2023/11/10 09:04:51;;;;;;;0.30;0.30;;;10.70;99.90;;;;;;4976599;28;20425;-66
2023/11/10 09:07:16;;;;;;;0.30;0.30;;;10.80;99.90;;;;;;4973719;28;20294;-67
2023/11/10 09:09:43;;;;;;;0.30;0.30;;;10.90;99.90;;;;;;4974094;28;20638;-67
2023/11/10 09:12:09;;;;;;;0.30;0.30;;;11.00;99.90;;;;;;4959219;28;20176;-67
2023/11/10 09:14:34;;;;;;;0.30;0.30;;;11.20;99.90;;;;;;4956090;28;20478;-68
2023/11/10 09:17:00;;;;;;;0.30;0.30;;;11.60;99.90;;;;;;4973470;28;20192;-70
2023/11/10 09:19:25;;;;;;;0.30;0.30;;;12.40;99.90;;;;;;4973205;28;20232;-66
2023/11/10 09:21:51;;;;;;;0.30;0.30;;;13.20;99.90;;;;;;4970740;28;20198;-66
2023/11/10 09:24:16;;;;;;;0.30;0.30;;;13.70;99.90;;;;;;4982956;28;20183;-65
2023/11/10 09:26:46;;;;;;;0.40;0.40;;;13.90;99.90;;;;;;4975151;28;20203;-66
2023/11/10 09:29:11;;;;;;;0.50;0.50;;;13.80;99.90;;;;;;4972420;28;20176;-68
2023/11/10 09:31:38;;;;;;;0.30;0.30;;;14.20;99.90;;;;;;4973333;28;20788;-67
2023/11/10 09:34:04;;;;;;;0.30;0.30;;;14.80;99.90;;;;;;4956924;28;20645;-66
2023/11/10 09:36:30;;;;;;;0.30;0.30;;;15.50;99.90;;;;;;4959318;28;20454;-67
2023/11/10 09:38:56;;;;;;;0.30;0.30;;;16.20;99.90;;;;;;4959123;28;20518;-67
2023/11/10 09:41:25;;;;;;;0.40;0.40;;;16.90;99.30;;;;;;4976866;28;20185;-65
2023/11/10 09:43:53;;;;;;;0.30;0.30;;;17.60;97.20;;;;;;4985456;28;20183;-71
2023/11/10 09:46:21;;;;;;;0.30;0.30;;;18.10;96.30;;;;;;4977203;28;20452;-66
2023/11/10 09:48:47;;;;;;;0.30;0.20;;;18.60;94.70;;;;;;4976626;28;20833;-65
2023/11/10 09:51:14;;;;;;;0.30;0.20;;;18.70;94.00;;;;;;4977527;28;20394;-67
2023/11/10 09:53:43;;;;;;;0.30;0.30;;;18.60;93.90;;;;;;4976996;28;20463;-70
2023/11/10 09:56:11;;;;;;;0.30;0.30;;;18.80;93.90;;;;;;4976341;28;20429;-65
2023/11/10 09:58:39;;;;;;;0.37;0.27;;;19.00;92.40;;;;;;4976477;28;20406;-68
2023/11/10 10:01:06;;;;;;;0.30;0.20;;;18.80;91.60;;;;;;4977170;28;20418;-64
2023/11/10 10:03:32;;;;;;;0.30;0.30;;;18.30;92.10;;;;;;4976314;28;20417;-68
2023/11/10 10:05:59;;;;;;;0.30;0.20;;;17.70;92.20;;;;;;4976361;28;20473;-67
2023/11/10 10:08:25;;;;;;;0.30;0.30;;;16.90;93.00;;;;;;4976679;28;20556;-66
2023/11/10 10:10:52;;;;;;;0.30;0.30;;;16.40;93.60;;;;;;4976847;28;20522;-65
2023/11/10 10:13:19;;;;;;;0.37;0.37;;;15.60;93.60;;;;;;4976274;28;20612;-69
2023/11/10 10:15:45;;;;;;;0.30;0.30;;;14.90;95.30;;;;;;4975563;28;20537;-67
2023/11/10 10:18:11;;;;;;;0.30;0.30;;;14.30;95.80;;;;;;4974206;28;21005;-66
2023/11/10 10:20:40;;;;;;;0.30;0.30;;;13.80;96.60;;;;;;4976428;28;20233;-66
2023/11/10 10:23:09;;;;;;;2.00;0.80;;;13.40;97.90;;;;;;4976297;28;20471;-65
2023/11/10 10:25:35;;;;;;;0.30;0.20;;;13.00;99.20;;;;;;4973907;28;20553;-65
2023/11/10 10:28:03;;;;;;;0.30;0.30;;;12.70;99.60;;;;;;4976658;28;20411;-62
2023/11/10 10:30:28;;;;;;;0.60;0.60;;;12.40;99.90;;;;;;4976574;28;20259;-68
2023/11/10 10:32:54;;;;;;;0.30;0.30;;;12.40;99.90;;;;;;4976092;28;20546;-64
2023/11/10 10:35:21;;;;;;;0.30;0.30;;;12.50;99.90;;;;;;4976099;28;20242;-62
2023/11/10 10:37:53;;;;;;;0.30;0.30;;;12.40;99.90;;;;;;4976377;28;20404;-62
2023/11/10 10:40:20;;;;;;;0.30;0.30;;;12.20;99.90;;;;;;4976631;28;20430;-65
2023/11/10 10:42:46;;;;;;;0.30;0.30;;;12.00;99.90;;;;;;4975687;28;20478;-63
2023/11/10 10:45:13;;;;;;;0.30;0.20;;;11.80;99.90;;;;;;4974676;28;20552;-63
2023/11/10 10:47:40;;;;;;;0.30;0.30;;;11.60;99.90;;;;;;4976373;28;20759;-65
2023/11/10 10:50:10;;;;;;;0.30;0.30;;;11.60;99.90;;;;;;4976376;28;20473;-63
2023/11/10 10:52:36;;;;;;;0.30;0.30;;;11.60;99.90;;;;;;4957103;29;20411;-66
2023/11/10 10:55:06;;;;;;;0.30;0.30;;;11.50;99.90;;;;;;4956497;28;20483;-65
2023/11/10 10:57:37;;;;;;;0.30;0.30;;;11.40;99.90;;;;;;4956668;29;20408;-65
2023/11/10 11:00:05;;;;;;;0.30;0.30;;;11.40;99.90;;;;;;4956969;29;20421;-65
2023/11/10 11:02:35;;;;;;;0.30;0.30;;;11.40;99.90;;;;;;4956724;29;20412;-68
2023/11/10 11:05:28;;;;;;;0.30;0.30;;;11.50;99.90;;;;;;4970410;28;20447;-65
2023/11/10 11:08:09;;;;;;;0.30;0.20;;;11.70;99.90;;;;;;4979673;28;20421;-66
2023/11/10 11:11:02;;;;;;;0.30;0.30;;;11.90;99.90;;;;;;4993715;28;20410;-66
2023/11/10 11:13:50;;;;;;;0.30;0.30;;;12.00;99.90;;;;;;4976436;28;20415;-64
2023/11/10 11:16:26;;;;;;;0.30;0.30;;;12.00;99.90;;;;;;4985584;28;20438;-65
2023/11/10 11:19:08;;;;;;;0.30;0.30;;;12.00;99.90;;;;;;4976773;28;20556;-66
2023/11/10 11:21:34;;;;;;;0.30;0.30;;;12.10;99.90;;;;;;4975371;28;20433;-66
2023/11/10 11:24:06;;;;;;;0.30;0.27;;;12.10;99.90;;;;;;4977141;28;20799;-69
2023/11/10 11:26:33;;;;;;;0.30;0.30;;;12.10;99.90;;;;;;4981496;28;20473;-69
2023/11/10 11:29:07;;;;;;;0.30;0.30;;;12.00;99.90;;;;;;4994952;28;20398;-68
2023/11/10 11:31:48;;;;;;;0.30;0.30;;;12.00;99.90;;;;;;4985731;28;20497;-68
2023/11/10 11:34:21;;;;;;;0.30;0.30;;;12.10;99.90;;;;;;4975320;28;20415;-69
2023/11/10 11:36:48;;;;;;;0.30;0.30;;;12.10;99.90;;;;;;4975122;28;20511;-69
2023/11/10 11:39:16;;;;;;;0.30;0.30;;;12.10;99.90;;;;;;4975421;28;20762;-68
2023/11/10 11:41:51;;;;;;;0.30;0.20;;;12.20;99.90;;;;;;4975425;28;20421;-67
2023/11/10 11:44:24;;;;;;;0.40;0.40;;;12.20;99.90;;;;;;4975028;28;20435;-66
2023/11/10 11:46:55;;;;;;;0.30;0.30;;;12.30;99.90;;;;;;4975120;28;20439;-65
2023/11/10 11:49:21;;;;;;;0.33;0.33;;;12.30;99.90;;;;;;4974911;28;20422;-65
2023/11/10 11:51:48;;;;;;;0.40;0.40;;;12.30;99.90;;;;;;4957801;28;20930;-64
2023/11/10 11:54:15;;;;;;;3.13;1.03;;;12.40;99.00;;;;;;4974441;28;20544;-61
2023/11/10 11:56:42;;;;;;;0.30;0.20;;;12.60;99.80;;;;;;4974587;28;20424;-62
2023/11/10 11:59:09;;;;;;;0.40;0.40;;;12.80;98.90;;;;;;4975037;28;20407;-62
2023/11/10 12:01:38;;;;;;;0.30;0.30;;;12.90;97.10;;;;;;4975698;28;20397;-62
2023/11/10 12:04:07;;;;;;;0.30;0.30;;;13.00;95.50;;;;;;4973947;28;20398;-61
2023/11/10 12:06:34;;;;;;;0.30;0.30;;;12.90;95.50;;;;;;4974244;28;20480;-64
2023/11/10 12:09:03;;;;;;;0.30;0.30;;;12.90;95.60;;;;;;4974708;28;20410;-65
2023/11/10 12:11:30;;;;;;;0.30;0.30;;;12.80;95.70;;;;;;4973962;28;20454;-63
2023/11/10 12:13:55;;;;;;;0.30;0.30;;;12.70;96.00;;;;;;4974220;28;20423;-67
2023/11/10 12:16:22;;;;;;;0.30;0.30;;;12.70;96.30;;;;;;4984076;28;20496;-63
2023/11/10 12:18:54;;;;;;;0.30;0.30;;;12.80;95.70;;;;;;4976518;28;20623;-65
2023/11/10 12:21:19;;;;;;;0.30;0.30;;;12.90;96.30;;;;;;4957766;28;20506;-63
2023/11/10 12:23:59;;;;;;;0.30;0.30;;;13.00;96.80;;;;;;4985579;28;20446;-65
2023/11/10 12:26:28;;;;;;;0.30;0.30;;;13.20;97.60;;;;;;4993639;28;20210;-63
2023/11/10 12:28:55;;;;;;;0.30;0.30;;;13.30;97.70;;;;;;4994108;28;20382;-62
2023/11/10 12:31:20;;;;;;;0.30;0.30;;;13.30;96.40;;;;;;4993937;28;20384;-64
2023/11/10 12:33:46;;;;;;;0.30;0.27;;;13.40;96.00;;;;;;4977174;28;20394;-64
2023/11/10 12:36:12;;;;;;;0.30;0.30;;;13.50;94.90;;;;;;4985613;28;20522;-64
2023/11/10 12:38:37;;;;;;;0.30;0.30;;;13.30;95.90;;;;;;4974582;28;20271;-63
2023/11/10 12:41:09;;;;;;;0.30;0.30;;;13.30;96.10;;;;;;4974761;28;20186;-61
2023/11/10 12:43:35;;;;;;;0.30;0.30;;;13.30;96.30;;;;;;4986078;28;20190;-65
2023/11/10 12:46:12;;;;;;;0.40;0.40;;;13.30;96.40;;;;;;4977399;28;20430;-63
2023/11/10 12:48:41;;;;;;;0.30;0.27;;;13.30;96.20;;;;;;4994082;28;20225;-63
2023/11/10 12:51:11;;;;;;;0.30;0.30;;;13.30;96.10;;;;;;4975509;28;20921;-63
2023/11/10 12:53:37;;;;;;;0.50;0.50;;;13.30;96.40;;;;;;4974635;28;20756;-64
2023/11/10 12:56:04;;;;;;;0.30;0.30;;;13.20;96.30;;;;;;4967592;28;20411;-64
2023/11/10 12:58:30;;;;;;;0.30;0.20;;;13.10;96.10;;;;;;4973018;28;20427;-64
2023/11/10 13:00:56;;;;;;;0.30;0.30;;;13.00;96.40;;;;;;4975201;28;20510;-64
2023/11/10 13:03:22;;;;;;;0.30;0.30;;;13.00;96.90;;;;;;4989852;28;20514;-62
2023/11/10 13:05:47;;;;;;;0.30;0.30;;;13.10;96.10;;;;;;4975937;28;20550;-63
2023/11/10 13:08:13;;;;;;;0.30;0.30;;;13.10;95.40;;;;;;4974990;28;20473;-64
2023/11/10 13:10:39;;;;;;;0.30;0.30;;;13.00;95.90;;;;;;4977943;28;20281;-62
2023/11/10 13:13:04;;;;;;;0.30;0.30;;;12.90;96.40;;;;;;4977904;28;20171;-64
2023/11/10 13:15:30;;;;;;;0.30;0.30;;;12.80;96.70;;;;;;4959714;28;20246;-63
2023/11/10 13:17:57;;;;;;;0.30;0.20;;;12.60;97.20;;;;;;4977995;28;20179;-64
2023/11/10 13:20:23;;;;;;;0.30;0.30;;;12.40;98.20;;;;;;4978216;28;20445;-66
2023/11/10 13:22:49;;;;;;;0.30;0.30;;;12.30;97.80;;;;;;4978491;28;20423;-69
2023/11/10 13:25:17;;;;;;;0.30;0.30;;;12.30;98.20;;;;;;4977150;28;20206;-68
2023/11/10 13:27:44;;;;;;;0.30;0.30;;;12.20;98.90;;;;;;4982053;28;20522;-68
2023/11/10 13:30:13;;;;;;;0.30;0.30;;;12.20;99.10;;;;;;4984223;28;20770;-65
2023/11/10 13:32:40;;;;;;;0.30;0.30;;;12.10;98.80;;;;;;4997124;28;20497;-64
2023/11/10 13:35:09;;;;;;;0.30;0.30;;;12.10;99.20;;;;;;4977830;28;20515;-63
2023/11/10 13:37:36;;;;;;;0.30;0.30;;;12.00;99.30;;;;;;4959524;28;20421;-64
2023/11/10 13:40:14;;;;;;;0.60;0.60;;;11.80;99.60;;;;;;4975606;28;20501;-64
2023/11/10 13:42:41;;;;;;;0.30;0.30;;;11.80;99.90;;;;;;4977751;28;20425;-63
2023/11/10 13:45:10;;;;;;;0.37;0.37;;;11.70;99.90;;;;;;4977086;28;20430;-64
2023/11/10 13:47:36;;;;;;;0.30;0.30;;;11.60;99.90;;;;;;4976126;28;20479;-64
2023/11/10 13:50:02;;;;;;;0.30;0.30;;;11.40;99.90;;;;;;4975345;28;20501;-65
2023/11/10 13:52:27;;;;;;;0.40;0.40;;;11.30;99.90;;;;;;4975343;28;20498;-65
2023/11/10 13:54:54;;;;;;;0.30;0.30;;;11.10;99.90;;;;;;4975002;28;20482;-65
2023/11/10 13:57:19;;;;;;;0.30;0.30;;;11.00;99.90;;;;;;4975307;28;20256;-66
2023/11/10 13:59:45;;;;;;;0.30;0.30;;;10.90;99.90;;;;;;4975249;28;20503;-65
2023/11/10 14:02:11;;;;;;;0.30;0.30;;;10.90;99.90;;;;;;4975195;28;20169;-65
2023/11/10 14:04:37;;;;;;;0.30;0.30;;;10.80;99.90;;;;;;4975211;28;20442;-65
2023/11/10 14:07:03;;;;;;;0.30;0.30;;;10.80;99.90;;;;;;4975204;28;20673;-65
2023/11/10 14:09:29;;;;;;;0.30;0.30;;;10.80;99.90;;;;;;4975571;28;20389;-65
2023/11/10 14:11:56;;;;;;;0.30;0.30;;;10.90;99.90;;;;;;4975731;28;20670;-65
2023/11/10 14:14:21;;;;;;;1.43;1.33;;;10.90;99.90;;;;;;4976619;28;20414;-62
2023/11/10 14:16:47;;;;;;;0.33;0.33;;;11.00;99.90;;;;;;4977042;28;20436;-64
2023/11/10 14:19:13;;;;;;;0.40;0.40;;;11.10;99.90;;;;;;4976651;28;20179;-63
2023/11/10 14:21:39;;;;;;;0.30;0.30;;;11.10;99.90;;;;;;4976719;28;20214;-64
2023/11/10 14:24:05;;;;;;;0.30;0.30;;;11.20;99.90;;;;;;4976277;28;20407;-64
2023/11/10 14:26:32;;;;;;;0.30;0.30;;;11.20;99.90;;;;;;4976503;28;20993;-64
2023/11/10 14:28:57;;;;;;;0.50;0.50;;;11.10;99.90;;;;;;4976838;28;20692;-63
2023/11/10 14:31:23;;;;;;;0.37;0.37;;;11.10;99.90;;;;;;4976755;28;20436;-64
2023/11/10 14:33:54;;;;;;;1.50;1.40;;;11.00;99.90;;;;;;4976554;28;20257;-64
2023/11/10 14:36:20;;;;;;;0.30;0.30;;;11.00;99.90;;;;;;4976459;28;20813;-62
2023/11/10 14:38:51;;;;;;;0.30;0.30;;;11.00;99.90;;;;;;4976552;28;20537;-65
2023/11/10 14:41:22;;;;;;;0.30;0.30;;;10.90;99.90;;;;;;4976356;28;20413;-63
2023/11/10 14:43:51;;;;;;;0.30;0.25;;;11.00;99.90;;;;;;4976425;28;20417;-65
2023/11/10 14:46:17;;;;;;;0.30;0.20;;;10.90;99.90;;;;;;4976135;28;20565;-64
2023/11/10 14:48:46;;;;;;;0.30;0.30;;;10.90;99.90;;;;;;4976257;28;20440;-65
2023/11/10 14:51:22;;;;;;;0.30;0.30;;;10.90;99.90;;;;;;4976209;28;20181;-62
2023/11/10 14:53:47;;;;;;;0.30;0.30;;;10.80;99.90;;;;;;4976102;28;20193;-64
2023/11/10 14:56:13;;;;;;;0.30;0.30;;;10.80;99.90;;;;;;4976094;28;20427;-63
2023/11/10 14:58:39;;;;;;;0.30;0.30;;;10.70;99.90;;;;;;4976200;28;20189;-65
2023/11/10 15:01:08;;;;;;;0.40;0.40;;;10.70;99.90;;;;;;4976176;28;20174;-63
2023/11/10 15:03:34;;;;;;;0.30;0.30;;;10.60;99.90;;;;;;4976014;28;20405;-64
2023/11/10 15:06:00;;;;;;;0.30;0.30;;;10.50;99.90;;;;;;4975418;28;20206;-62
2023/11/10 15:08:26;;;;;;;0.30;0.30;;;10.50;99.90;;;;;;4975852;28;20842;-64
2023/11/10 15:10:51;;;;;;;0.30;0.30;;;10.40;99.90;;;;;;4976052;28;20172;-63
2023/11/10 15:13:17;;;;;;;0.33;0.33;;;10.40;99.90;;;;;;4975818;28;20180;-64
2023/11/10 15:15:47;;;;;;;0.30;0.30;;;10.30;99.90;;;;;;4975440;28;20540;-63
2023/11/10 15:18:18;;;;;;;0.30;0.30;;;10.30;99.90;;;;;;4975970;28;20591;-63
2023/11/10 15:20:44;;;;;;;0.30;0.30;;;10.30;99.90;;;;;;4975993;28;20202;-62
2023/11/10 15:23:11;;;;;;;0.30;0.30;;;10.20;99.90;;;;;;4975270;28;20231;-63
2023/11/10 15:25:37;;;;;;;0.30;0.30;;;10.20;99.90;;;;;;4974908;28;20236;-63
2023/11/10 15:28:03;;;;;;;0.30;0.30;;;10.10;99.90;;;;;;4975076;28;20203;-64
2023/11/10 15:30:29;;;;;;;0.30;0.30;;;10.10;99.90;;;;;;4974506;28;20200;-63
2023/11/10 15:32:59;;;;;;;0.30;0.30;;;10.10;99.90;;;;;;4975150;28;20176;-64
2023/11/10 15:35:25;;;;;;;0.30;0.30;;;10.00;99.90;;;;;;4974765;28;20189;-63
2023/11/10 15:37:53;;;;;;;0.30;0.30;;;10.00;99.90;;;;;;4974258;28;20189;-65
2023/11/10 15:40:21;;;;;;;0.32;0.32;;;10.00;99.90;;;;;;4956573;28;20176;-62
2023/11/10 15:42:47;;;;;;;0.32;0.32;;;9.90;99.90;;;;;;4974289;28;20667;-63
2023/11/10 15:45:13;;;;;;;0.30;0.30;;;9.90;99.90;;;;;;4975076;28;20200;-62
2023/11/10 15:47:38;;;;;;;0.30;0.30;;;9.80;99.90;;;;;;4975034;28;20459;-61
2023/11/10 15:50:05;;;;;;;0.30;0.30;;;9.80;99.90;;;;;;4975223;28;20182;-63
2023/11/10 15:52:32;;;;;;;0.40;0.40;;;9.70;99.90;;;;;;4974931;28;20176;-61
2023/11/10 15:55:02;;;;;;;0.30;0.30;;;9.70;99.90;;;;;;4974648;28;20195;-64
2023/11/10 15:57:28;;;;;;;0.30;0.30;;;9.70;99.90;;;;;;4974741;28;20176;-62
2023/11/10 15:59:54;;;;;;;0.30;0.30;;;9.60;99.90;;;;;;4974902;28;20179;-62
2023/11/10 16:02:23;;;;;;;0.40;0.40;;;9.60;99.90;;;;;;4974704;28;20664;-59
2023/11/10 16:04:50;;;;;;;0.30;0.30;;;9.60;99.90;;;;;;4974158;28;20227;-60
2023/11/10 16:07:16;;;;;;;0.30;0.30;;;9.60;99.90;;;;;;4975158;28;20291;-61
2023/11/10 16:09:45;;;;;;;0.30;0.30;;;9.60;99.90;;;;;;4975033;28;20632;-60
2023/11/10 16:12:14;;;;;;;0.30;0.30;;;9.60;99.90;;;;;;4974736;28;20774;-60
2023/11/10 16:14:41;;;;;;;0.30;0.30;;;9.60;99.90;;;;;;4974418;28;20699;-60
2023/11/10 16:17:06;;;;;;;0.40;0.40;;;9.50;99.90;;;;;;4974811;28;20176;-61
2023/11/10 16:19:34;;;;;;;0.40;0.40;;;9.50;99.90;;;;;;4974818;28;20168;-60
2023/11/10 16:22:01;;;;;;;0.30;0.30;;;9.50;99.90;;;;;;4974564;28;20187;-62
2023/11/10 16:24:27;;;;;;;0.40;0.40;;;9.50;99.90;;;;;;4974026;28;20296;-63
2023/11/10 16:26:52;;;;;;;0.30;0.30;;;9.40;99.90;;;;;;4974124;28;20295;-63
2023/11/10 16:29:23;;;;;;;0.60;0.60;;;9.40;99.90;;;;;;4974443;28;20256;-63
2023/11/10 16:31:52;;;;;;;0.30;0.30;;;9.40;99.90;;;;;;4974470;28;20577;-61
2023/11/10 16:34:19;;;;;;;0.32;0.32;;;9.30;99.90;;;;;;4973896;28;20168;-61
2023/11/10 16:36:45;;;;;;;0.50;0.50;;;9.30;99.90;;;;;;4974581;28;20275;-62
2023/11/10 16:39:15;;;;;;;0.50;0.50;;;9.30;99.90;;;;;;4974312;28;20180;-62
2023/11/10 16:41:44;;;;;;;0.40;0.40;;;9.20;99.90;;;;;;4974501;28;20238;-63
2023/11/10 16:44:10;;;;;;;0.30;0.30;;;9.20;99.90;;;;;;4973976;28;20264;-63
2023/11/10 16:46:36;;;;;;;0.30;0.30;;;9.10;99.90;;;;;;4956893;28;20676;-64
2023/11/10 16:49:02;;;;;;;0.87;0.87;;;9.10;99.90;;;;;;4974042;28;20180;-63
2023/11/10 16:51:28;;;;;;;0.40;0.40;;;9.20;99.90;;;;;;4974160;28;20403;-63
2023/11/10 16:53:55;;;;;;;0.30;0.30;;;9.20;99.90;;;;;;4973945;28;20179;-65
2023/11/10 16:56:22;;;;;;;0.30;0.30;;;9.20;99.90;;;;;;4973893;28;20195;-67